Time;durP1;ratioP1;P1;durP2;ratioP2;P2;SDS_P1;SDS_P2;PMS_P1;PMS_P2;Temp;Humidity;BMP_temperature;BMP_pressure;BME280_temperature;BME280_humidity;BME280_pressure;Samples;Min_cycle;Max_cycle;Signal;HPM_P1;HPM_P2
2023/05/21 00:01:02;;;;;;;9.43;7.93;;;18.30;99.90;;;;;;7389833;19;20135;-80
2023/05/21 00:03:29;;;;;;;8.88;7.50;;;18.30;99.90;;;;;;7389049;19;20134;-81
2023/05/21 00:05:55;;;;;;;10.32;7.70;;;18.30;99.90;;;;;;7386990;19;20174;-81
2023/05/21 00:08:22;;;;;;;9.20;7.38;;;18.30;99.90;;;;;;7390239;19;20139;-80
2023/05/21 00:10:48;;;;;;;9.05;7.80;;;18.30;99.90;;;;;;7386252;19;20926;-80
2023/05/21 00:13:14;;;;;;;10.65;7.75;;;18.30;99.90;;;;;;7388101;19;20153;-81
2023/05/21 00:15:40;;;;;;;10.88;8.38;;;18.30;99.90;;;;;;7385660;19;20154;-80
2023/05/21 00:18:05;;;;;;;11.00;7.97;;;18.30;99.90;;;;;;7384764;19;20143;-81
2023/05/21 00:20:32;;;;;;;9.35;7.40;;;18.10;99.90;;;;;;7385971;19;20175;-80
2023/05/21 00:23:04;;;;;;;9.27;7.78;;;18.10;99.90;;;;;;7387569;19;20496;-81
2023/05/21 00:25:30;;;;;;;9.82;8.13;;;18.00;99.90;;;;;;7386646;19;20490;-80
2023/05/21 00:27:55;;;;;;;9.93;8.55;;;18.10;99.90;;;;;;7387448;19;20130;-79
2023/05/21 00:30:21;;;;;;;9.75;8.23;;;17.90;99.90;;;;;;7388674;19;20164;-81
2023/05/21 00:32:47;;;;;;;9.82;8.18;;;18.00;99.90;;;;;;7386156;19;20131;-79
2023/05/21 00:35:13;;;;;;;9.48;8.45;;;18.00;99.90;;;;;;7387759;19;20142;-80
2023/05/21 00:37:39;;;;;;;9.95;8.20;;;17.90;99.90;;;;;;7384982;19;20198;-80
2023/05/21 00:40:10;;;;;;;10.80;8.60;;;18.00;99.90;;;;;;7386428;19;20164;-81
2023/05/21 00:42:41;;;;;;;8.77;7.63;;;17.90;99.90;;;;;;7388110;19;20126;-82
2023/05/21 00:45:07;;;;;;;9.35;8.00;;;18.00;99.90;;;;;;7386131;19;20134;-81
2023/05/21 00:47:34;;;;;;;10.30;8.30;;;17.80;99.90;;;;;;7387071;19;20142;-81
2023/05/21 00:50:03;;;;;;;9.57;7.97;;;17.70;99.90;;;;;;7385825;19;20593;-81
2023/05/21 00:52:29;;;;;;;9.40;8.10;;;17.90;99.90;;;;;;7383890;19;20135;-80
2023/05/21 00:54:55;;;;;;;11.02;8.68;;;18.00;99.90;;;;;;7384419;19;20601;-82
2023/05/21 00:57:24;;;;;;;11.10;8.40;;;18.00;99.90;;;;;;7390957;19;20134;-81
2023/05/21 00:59:51;;;;;;;10.85;7.95;;;18.00;99.90;;;;;;7393727;19;20153;-80
2023/05/21 01:02:17;;;;;;;10.50;8.25;;;18.00;99.90;;;;;;7395161;19;20138;-80
2023/05/21 01:04:44;;;;;;;10.70;8.88;;;18.10;99.90;;;;;;7392882;19;20621;-81
2023/05/21 01:07:13;;;;;;;10.15;8.48;;;18.00;99.90;;;;;;7390093;19;20168;-80
2023/05/21 01:09:42;;;;;;;10.35;7.80;;;18.00;99.90;;;;;;7391961;19;20154;-81
2023/05/21 01:12:08;;;;;;;10.23;8.65;;;18.00;99.90;;;;;;7393822;19;20155;-80
2023/05/21 01:14:36;;;;;;;9.10;8.13;;;18.10;99.90;;;;;;7396244;19;20138;-80
2023/05/21 01:17:05;;;;;;;11.35;8.57;;;18.00;99.90;;;;;;7392793;19;20142;-79
2023/05/21 01:19:31;;;;;;;13.90;9.40;;;18.10;99.90;;;;;;7391134;19;20182;-80
2023/05/21 01:22:06;;;;;;;12.45;10.05;;;18.10;99.90;;;;;;7391659;19;20328;-80
2023/05/21 01:24:32;;;;;;;13.27;10.02;;;18.20;99.90;;;;;;7393070;19;20604;-81
2023/05/21 01:26:59;;;;;;;12.40;10.18;;;18.30;99.90;;;;;;7390298;19;21037;-80
2023/05/21 01:29:25;;;;;;;11.90;9.35;;;18.10;99.90;;;;;;7390826;19;20507;-81
2023/05/21 01:32:30;;;;;;;12.00;9.45;;;18.30;99.90;;;;;;7384209;19;20126;-80
2023/05/21 01:35:11;;;;;;;13.25;9.80;;;18.20;99.90;;;;;;7390920;19;20142;-82
2023/05/21 01:37:37;;;;;;;11.95;8.98;;;18.10;99.90;;;;;;7391854;19;20246;-81
2023/05/21 01:40:27;;;;;;;12.27;9.02;;;18.00;99.90;;;;;;7393087;19;20153;-81
2023/05/21 01:42:53;;;;;;;11.02;9.40;;;18.00;99.90;;;;;;7394799;19;20135;-81
2023/05/21 01:45:21;;;;;;;11.20;9.30;;;17.90;99.90;;;;;;7393799;19;20151;-81
2023/05/21 01:47:48;;;;;;;11.38;9.23;;;17.90;99.90;;;;;;7391240;19;20232;-81
2023/05/21 01:50:16;;;;;;;10.70;9.48;;;17.90;99.90;;;;;;7391512;19;20146;-81
2023/05/21 01:52:51;;;;;;;12.32;8.82;;;17.90;99.90;;;;;;7390173;19;20131;-82
2023/05/21 01:55:18;;;;;;;12.13;9.32;;;17.90;99.90;;;;;;7391317;19;20168;-81
2023/05/21 01:57:44;;;;;;;11.15;8.75;;;18.00;99.90;;;;;;7390319;19;20127;-81
2023/05/21 02:00:11;;;;;;;11.60;9.45;;;17.80;99.90;;;;;;7391096;19;20475;-81
2023/05/21 02:02:37;;;;;;;11.73;9.35;;;17.80;99.90;;;;;;7391929;19;20142;-82
2023/05/21 02:05:02;;;;;;;12.88;9.82;;;17.80;99.90;;;;;;7391832;19;20141;-81
2023/05/21 02:07:31;;;;;;;12.63;9.77;;;17.80;99.90;;;;;;7389506;19;20150;-80
2023/05/21 02:09:57;;;;;;;11.10;9.70;;;17.90;99.90;;;;;;7390584;19;20158;-81
2023/05/21 02:12:24;;;;;;;12.43;9.07;;;17.90;99.90;;;;;;7392117;19;20135;-81
2023/05/21 02:14:50;;;;;;;12.60;9.73;;;17.80;99.90;;;;;;7391958;19;20131;-81
2023/05/21 02:17:16;;;;;;;10.40;8.98;;;17.80;99.90;;;;;;7390381;19;20536;-81
2023/05/21 02:19:45;;;;;;;12.02;9.57;;;17.90;99.90;;;;;;7390540;19;20178;-81
2023/05/21 02:22:11;;;;;;;12.15;9.27;;;17.80;99.90;;;;;;7393719;19;20164;-81
2023/05/21 02:24:39;;;;;;;13.05;10.05;;;17.70;99.90;;;;;;7393667;19;20650;-81
2023/05/21 02:27:05;;;;;;;10.55;9.30;;;17.70;99.90;;;;;;7388511;19;20146;-80
2023/05/21 02:29:32;;;;;;;15.13;9.43;;;17.70;99.90;;;;;;7389971;19;20154;-81
2023/05/21 02:31:57;;;;;;;12.00;8.82;;;17.70;99.90;;;;;;7391467;19;20257;-80
2023/05/21 02:34:23;;;;;;;12.18;9.55;;;17.70;99.90;;;;;;7391424;19;20156;-82
2023/05/21 02:36:52;;;;;;;11.85;9.45;;;17.70;99.90;;;;;;7390679;19;20176;-81
2023/05/21 02:39:18;;;;;;;11.48;9.95;;;17.60;99.90;;;;;;7390202;19;20495;-80
2023/05/21 02:41:47;;;;;;;11.40;9.63;;;17.70;99.90;;;;;;7389753;19;20178;-82
2023/05/21 02:44:13;;;;;;;10.75;9.18;;;17.50;99.90;;;;;;7392900;19;20154;-81
2023/05/21 02:46:39;;;;;;;12.40;9.13;;;17.50;99.90;;;;;;7391253;19;20478;-81
2023/05/21 02:49:05;;;;;;;13.02;9.65;;;17.60;99.90;;;;;;7393106;19;20271;-80
2023/05/21 02:51:31;;;;;;;14.20;10.45;;;17.60;99.90;;;;;;7392383;19;20192;-81
2023/05/21 02:53:57;;;;;;;13.25;9.93;;;17.60;99.90;;;;;;7383751;19;20221;-80
2023/05/21 02:56:23;;;;;;;13.10;9.73;;;17.60;99.90;;;;;;7389418;19;20156;-81
2023/05/21 02:58:50;;;;;;;13.32;10.00;;;17.50;99.90;;;;;;7391283;19;20567;-81
2023/05/21 03:01:16;;;;;;;14.63;9.77;;;17.50;99.90;;;;;;7389152;19;20163;-80
2023/05/21 03:03:42;;;;;;;11.40;9.00;;;17.40;99.90;;;;;;7389578;19;20143;-80
2023/05/21 03:06:09;;;;;;;12.48;9.75;;;17.20;99.90;;;;;;7387989;19;20142;-80
2023/05/21 03:08:37;;;;;;;12.35;9.82;;;17.00;99.90;;;;;;7390061;19;20138;-81
2023/05/21 03:11:03;;;;;;;12.57;9.52;;;17.00;99.90;;;;;;7388563;19;20141;-82
2023/05/21 03:13:29;;;;;;;12.02;10.02;;;16.90;99.90;;;;;;7390120;19;20143;-80
2023/05/21 03:15:57;;;;;;;13.23;10.80;;;16.90;99.90;;;;;;7390427;19;20152;-81
2023/05/21 03:18:23;;;;;;;11.50;9.27;;;17.10;99.90;;;;;;7390249;19;20577;-81
2023/05/21 03:20:49;;;;;;;11.90;9.80;;;17.00;99.90;;;;;;7387902;19;20139;-79
2023/05/21 03:23:15;;;;;;;14.20;9.38;;;17.00;99.90;;;;;;7387686;19;20451;-80
2023/05/21 03:25:41;;;;;;;13.75;10.43;;;16.90;99.90;;;;;;7388646;19;20130;-80
2023/05/21 03:28:08;;;;;;;13.07;9.30;;;16.60;99.90;;;;;;7390060;19;20587;-80
2023/05/21 03:30:35;;;;;;;12.13;9.82;;;16.60;99.90;;;;;;7387073;19;20135;-81
2023/05/21 03:33:02;;;;;;;12.05;9.52;;;16.80;99.90;;;;;;7388440;19;20160;-80
2023/05/21 03:35:28;;;;;;;15.07;9.98;;;16.50;99.90;;;;;;7389783;19;20139;-81
2023/05/21 03:37:53;;;;;;;12.00;9.43;;;16.80;99.90;;;;;;7389001;19;20753;-80
2023/05/21 03:40:20;;;;;;;12.95;10.27;;;16.90;99.90;;;;;;7387005;19;20150;-80
2023/05/21 03:42:47;;;;;;;13.20;9.98;;;16.90;99.90;;;;;;7388080;19;20161;-80
2023/05/21 03:45:12;;;;;;;12.95;10.55;;;16.70;99.90;;;;;;7388475;19;20139;-80
2023/05/21 03:47:38;;;;;;;13.20;11.00;;;16.70;99.90;;;;;;7391398;19;20142;-80
2023/05/21 03:50:05;;;;;;;13.65;10.77;;;17.00;99.90;;;;;;7386847;19;20142;-78
2023/05/21 03:52:30;;;;;;;14.30;10.63;;;17.00;99.90;;;;;;7390776;19;20138;-80
2023/05/21 03:54:56;;;;;;;13.32;9.93;;;16.80;99.90;;;;;;7386792;19;20589;-80
2023/05/21 03:57:22;;;;;;;13.80;10.38;;;16.90;99.90;;;;;;7390311;19;20226;-79
2023/05/21 03:59:48;;;;;;;12.02;9.50;;;16.90;99.90;;;;;;7387783;19;20139;-79
2023/05/21 04:02:14;;;;;;;13.10;9.93;;;16.90;99.90;;;;;;7389307;19;20135;-79
2023/05/21 04:04:39;;;;;;;12.80;9.48;;;17.00;99.90;;;;;;7387243;19;20139;-79
2023/05/21 04:07:13;;;;;;;12.90;9.82;;;17.00;99.90;;;;;;7385495;19;20163;-79
2023/05/21 04:09:40;;;;;;;12.15;9.88;;;17.10;99.90;;;;;;7387051;19;20168;-79
2023/05/21 04:12:06;;;;;;;15.57;10.18;;;17.10;99.90;;;;;;7388508;19;20154;-79
2023/05/21 04:14:33;;;;;;;13.48;9.70;;;16.70;99.90;;;;;;7390425;19;20139;-80
2023/05/21 04:16:58;;;;;;;12.93;10.32;;;16.70;99.90;;;;;;7387989;19;20390;-79
2023/05/21 04:19:24;;;;;;;14.77;10.52;;;16.90;99.90;;;;;;7388683;19;20628;-81
2023/05/21 04:21:50;;;;;;;15.63;10.65;;;17.00;99.90;;;;;;7387125;19;20138;-80
2023/05/21 04:24:16;;;;;;;11.60;10.15;;;17.10;99.90;;;;;;7387644;19;20143;-80
2023/05/21 04:26:43;;;;;;;12.65;10.13;;;17.20;99.90;;;;;;7386007;19;20134;-80
2023/05/21 04:29:09;;;;;;;13.10;10.23;;;17.20;99.90;;;;;;7387939;19;20142;-80
2023/05/21 04:31:34;;;;;;;18.08;11.57;;;17.20;99.90;;;;;;7386406;19;20218;-80
2023/05/21 04:34:00;;;;;;;16.35;10.93;;;17.40;99.90;;;;;;7388378;19;20655;-80
2023/05/21 04:36:27;;;;;;;13.85;10.68;;;17.50;99.90;;;;;;7388462;19;20157;-80
2023/05/21 04:38:54;;;;;;;12.98;10.70;;;17.30;99.90;;;;;;7387848;19;20613;-79
2023/05/21 04:41:21;;;;;;;17.08;11.95;;;17.20;99.90;;;;;;7385917;19;20154;-79
2023/05/21 04:43:48;;;;;;;13.35;10.90;;;17.20;99.90;;;;;;7385480;19;20150;-80
2023/05/21 04:46:13;;;;;;;15.10;11.82;;;17.30;99.90;;;;;;7385766;19;20142;-79
2023/05/21 04:48:39;;;;;;;12.95;10.60;;;17.40;99.90;;;;;;7387395;19;20613;-80
2023/05/21 04:51:05;;;;;;;13.30;10.68;;;17.30;99.90;;;;;;7385356;19;20451;-80
2023/05/21 04:53:32;;;;;;;14.07;10.48;;;17.20;99.90;;;;;;7388297;19;20189;-80
2023/05/21 04:55:58;;;;;;;13.65;10.65;;;17.20;99.90;;;;;;7388924;19;20131;-80
2023/05/21 04:58:25;;;;;;;14.73;10.60;;;17.30;99.90;;;;;;7387232;19;20226;-78
2023/05/21 05:00:52;;;;;;;14.85;10.55;;;17.30;99.90;;;;;;7386364;19;20257;-79
2023/05/21 05:03:18;;;;;;;12.13;10.30;;;17.30;99.90;;;;;;7386800;19;20142;-78
2023/05/21 05:05:43;;;;;;;11.38;10.00;;;17.30;99.90;;;;;;7384366;19;20618;-80
2023/05/21 05:08:09;;;;;;;12.43;10.77;;;17.20;99.90;;;;;;7388927;19;20135;-79
2023/05/21 05:10:35;;;;;;;13.65;10.52;;;17.30;99.90;;;;;;7385212;19;20149;-79
2023/05/21 05:13:01;;;;;;;13.82;10.80;;;17.40;99.90;;;;;;7385372;19;20142;-79
2023/05/21 05:15:26;;;;;;;12.60;10.73;;;17.40;99.90;;;;;;7386374;19;20159;-79
2023/05/21 05:17:53;;;;;;;14.13;11.07;;;17.40;99.90;;;;;;7384787;19;20173;-79
2023/05/21 05:20:19;;;;;;;14.13;10.82;;;17.30;99.90;;;;;;7383815;19;20161;-79
2023/05/21 05:22:44;;;;;;;13.15;10.98;;;17.40;99.90;;;;;;7385888;19;20143;-80
2023/05/21 05:25:10;;;;;;;13.35;10.57;;;17.60;99.90;;;;;;7384524;19;20138;-78
2023/05/21 05:27:36;;;;;;;12.18;10.18;;;17.40;99.90;;;;;;7387547;19;20138;-79
2023/05/21 05:30:02;;;;;;;13.32;10.65;;;17.30;99.90;;;;;;7385758;19;20149;-80
2023/05/21 05:32:27;;;;;;;13.35;10.13;;;17.30;99.90;;;;;;7385925;19;20142;-80
2023/05/21 05:34:53;;;;;;;16.73;11.27;;;17.40;99.90;;;;;;7385524;19;20151;-79
2023/05/21 05:37:19;;;;;;;14.85;11.57;;;17.30;99.90;;;;;;7385628;19;20206;-79
2023/05/21 05:39:45;;;;;;;15.68;11.10;;;17.50;99.90;;;;;;7385520;19;20131;-79
2023/05/21 05:42:11;;;;;;;12.55;10.45;;;17.50;99.90;;;;;;7386003;19;20139;-80
2023/05/21 05:44:36;;;;;;;13.45;10.13;;;17.60;99.90;;;;;;7393543;19;20201;-79
2023/05/21 05:47:09;;;;;;;14.10;10.45;;;17.50;99.90;;;;;;7390755;19;20217;-81
2023/05/21 05:49:36;;;;;;;13.68;11.05;;;17.60;99.90;;;;;;7392230;19;20215;-80
2023/05/21 05:52:02;;;;;;;13.05;10.98;;;17.70;99.90;;;;;;7391331;19;20146;-80
2023/05/21 05:54:28;;;;;;;12.68;10.77;;;17.60;99.90;;;;;;7386946;19;20504;-79
2023/05/21 05:56:54;;;;;;;13.50;10.07;;;17.60;99.90;;;;;;7390846;19;20134;-81
2023/05/21 05:59:20;;;;;;;14.50;11.38;;;17.60;99.90;;;;;;7390326;19;20126;-79
2023/05/21 06:01:46;;;;;;;14.02;10.68;;;17.70;99.90;;;;;;7393550;19;20579;-80
2023/05/21 06:04:12;;;;;;;13.60;10.85;;;17.80;99.90;;;;;;7391098;19;20162;-79
2023/05/21 06:06:38;;;;;;;12.90;10.48;;;17.80;99.90;;;;;;7394037;19;20134;-78
2023/05/21 06:09:04;;;;;;;12.98;10.48;;;17.80;99.90;;;;;;7395094;19;20536;-79
2023/05/21 06:11:29;;;;;;;13.75;10.98;;;17.80;99.90;;;;;;7394444;19;20146;-78
2023/05/21 06:13:55;;;;;;;12.60;10.32;;;18.10;99.90;;;;;;7390234;19;20155;-79
2023/05/21 06:16:21;;;;;;;13.77;10.82;;;18.00;99.90;;;;;;7392486;19;20138;-78
2023/05/21 06:18:47;;;;;;;13.45;11.35;;;18.00;99.90;;;;;;7390179;19;20531;-78
2023/05/21 06:21:13;;;;;;;12.05;10.18;;;18.10;99.90;;;;;;7391359;19;20150;-78
2023/05/21 06:23:38;;;;;;;13.35;10.80;;;18.10;99.90;;;;;;7390510;19;20605;-78
2023/05/21 06:26:05;;;;;;;15.15;10.77;;;18.20;99.90;;;;;;7389424;19;20610;-78
2023/05/21 06:28:30;;;;;;;14.18;11.10;;;18.30;99.90;;;;;;7391788;19;20622;-78
2023/05/21 06:30:56;;;;;;;12.40;9.95;;;18.70;99.90;;;;;;7390724;19;20322;-79
2023/05/21 06:33:22;;;;;;;15.13;10.90;;;19.20;99.90;;;;;;7390425;19;20146;-80
2023/05/21 06:35:48;;;;;;;15.95;11.18;;;20.10;99.90;;;;;;7389877;19;20142;-78
2023/05/21 06:38:14;;;;;;;14.82;10.88;;;20.90;99.90;;;;;;7389813;19;20505;-78
2023/05/21 06:40:41;;;;;;;14.40;11.23;;;21.40;99.90;;;;;;7388458;19;20145;-79
2023/05/21 06:43:07;;;;;;;13.45;10.23;;;21.60;99.90;;;;;;7389724;19;20150;-77
2023/05/21 06:45:32;;;;;;;14.95;11.05;;;21.70;99.90;;;;;;7388462;19;20142;-79
2023/05/21 06:47:58;;;;;;;14.30;11.10;;;21.10;99.90;;;;;;7388785;19;20139;-78
2023/05/21 06:50:24;;;;;;;12.20;10.23;;;21.20;99.90;;;;;;7388706;19;20127;-78
2023/05/21 06:52:50;;;;;;;13.43;10.75;;;21.00;99.90;;;;;;7389150;19;20703;-78
2023/05/21 06:55:15;;;;;;;14.35;11.13;;;20.90;99.90;;;;;;7387555;19;20173;-78
2023/05/21 06:57:42;;;;;;;10.73;9.27;;;20.80;99.90;;;;;;7389054;19;20150;-79
2023/05/21 07:00:11;;;;;;;13.45;10.43;;;20.70;99.90;;;;;;7388202;19;20171;-79
2023/05/21 07:02:37;;;;;;;13.57;10.77;;;20.80;99.90;;;;;;7389295;19;20146;-78
2023/05/21 07:05:03;;;;;;;13.00;10.70;;;20.80;99.90;;;;;;7388717;19;20616;-78
2023/05/21 07:07:29;;;;;;;12.93;9.75;;;20.70;99.90;;;;;;7384848;19;20167;-78
2023/05/21 07:09:55;;;;;;;12.15;10.32;;;20.70;99.90;;;;;;7387760;19;20531;-78
2023/05/21 07:12:20;;;;;;;12.60;9.73;;;20.70;99.90;;;;;;7388227;19;20141;-77
2023/05/21 07:14:46;;;;;;;13.35;10.20;;;20.60;99.90;;;;;;7388954;19;20184;-78
2023/05/21 07:17:12;;;;;;;11.05;8.80;;;20.70;99.90;;;;;;7388663;19;20142;-78
2023/05/21 07:19:38;;;;;;;11.00;9.30;;;20.90;99.90;;;;;;7387665;19;20255;-78
2023/05/21 07:22:05;;;;;;;14.13;10.48;;;21.10;99.90;;;;;;7390169;19;20135;-79
2023/05/21 07:24:31;;;;;;;12.90;9.98;;;21.30;99.90;;;;;;7388617;19;20453;-78
2023/05/21 07:26:56;;;;;;;13.63;10.18;;;21.20;99.90;;;;;;7385984;19;20143;-78
2023/05/21 07:29:22;;;;;;;11.80;10.00;;;21.10;99.90;;;;;;7388587;19;20631;-78
2023/05/21 07:31:48;;;;;;;11.77;9.57;;;21.10;99.90;;;;;;7387746;19;20159;-77
2023/05/21 07:34:15;;;;;;;11.48;9.43;;;21.30;99.90;;;;;;7389143;19;20134;-78
2023/05/21 07:36:41;;;;;;;12.10;9.65;;;21.20;99.90;;;;;;7388984;19;20502;-77
2023/05/21 07:39:06;;;;;;;12.07;9.48;;;21.10;99.90;;;;;;7386565;19;20131;-78
2023/05/21 07:41:32;;;;;;;10.98;9.32;;;21.00;99.90;;;;;;7387976;19;20162;-78
2023/05/21 07:44:00;;;;;;;11.52;9.50;;;21.10;99.90;;;;;;7388084;19;20158;-76
2023/05/21 07:46:26;;;;;;;10.45;8.98;;;21.30;99.90;;;;;;7386450;19;20138;-78
2023/05/21 07:48:52;;;;;;;10.75;9.00;;;21.50;99.90;;;;;;7386882;19;20141;-78
2023/05/21 07:51:17;;;;;;;12.32;10.25;;;21.80;99.90;;;;;;7388968;19;20172;-81
2023/05/21 07:53:43;;;;;;;10.18;8.25;;;22.10;99.90;;;;;;7389492;19;20146;-80
2023/05/21 07:56:09;;;;;;;11.55;8.98;;;22.10;99.90;;;;;;7388728;19;20468;-79
2023/05/21 07:58:35;;;;;;;14.90;8.55;;;22.10;99.90;;;;;;7388595;19;20134;-80
2023/05/21 08:01:01;;;;;;;11.38;8.85;;;22.50;99.90;;;;;;7389941;19;20141;-79
2023/05/21 08:03:29;;;;;;;10.40;7.93;;;22.60;99.90;;;;;;7388846;19;20146;-80
2023/05/21 08:05:55;;;;;;;10.48;8.23;;;22.60;99.90;;;;;;7386779;19;20218;-78
2023/05/21 08:08:22;;;;;;;12.98;8.35;;;23.00;99.90;;;;;;7387678;19;20250;-79
2023/05/21 08:10:48;;;;;;;11.65;8.38;;;23.30;99.90;;;;;;7388404;19;20497;-79
2023/05/21 08:13:15;;;;;;;10.90;8.52;;;23.70;99.90;;;;;;7389979;19;20127;-82
2023/05/21 08:15:41;;;;;;;11.50;8.73;;;23.40;99.90;;;;;;7388293;19;20314;-81
2023/05/21 08:18:07;;;;;;;11.07;8.73;;;23.30;99.90;;;;;;7389206;19;20230;-82
2023/05/21 08:20:33;;;;;;;11.27;8.20;;;23.40;99.90;;;;;;7383521;19;20153;-81
2023/05/21 08:22:59;;;;;;;9.48;7.93;;;23.40;99.90;;;;;;7388144;19;20145;-82
2023/05/21 08:25:28;;;;;;;10.52;8.73;;;23.60;99.90;;;;;;7387753;19;20135;-83
2023/05/21 08:27:54;;;;;;;9.90;8.13;;;23.50;99.90;;;;;;7387950;19;20585;-78
2023/05/21 08:30:20;;;;;;;10.48;8.18;;;23.50;99.90;;;;;;7387318;19;20253;-81
2023/05/21 08:32:48;;;;;;;8.75;7.85;;;23.60;99.90;;;;;;7389345;19;20145;-79
2023/05/21 08:35:14;;;;;;;10.55;7.90;;;23.60;99.90;;;;;;7387244;19;20135;-78
2023/05/21 08:37:40;;;;;;;9.40;8.10;;;23.60;99.90;;;;;;7388087;19;20591;-78
2023/05/21 08:40:06;;;;;;;9.88;7.97;;;23.80;99.90;;;;;;7386382;19;20157;-77
2023/05/21 08:42:47;;;;;;;9.35;7.78;;;23.90;99.90;;;;;;7384598;19;20213;-76
2023/05/21 08:45:15;;;;;;;9.90;8.07;;;23.40;99.90;;;;;;7386195;19;20134;-77
2023/05/21 08:47:43;;;;;;;8.98;8.07;;;23.10;99.90;;;;;;7387915;19;20421;-76
2023/05/21 08:50:11;;;;;;;9.20;7.50;;;23.00;99.90;;;;;;7385230;19;20221;-77
2023/05/21 08:52:37;;;;;;;8.95;7.82;;;23.20;99.90;;;;;;7387091;19;20154;-78
2023/05/21 08:55:04;;;;;;;10.50;8.02;;;23.20;99.90;;;;;;7386083;19;20226;-78
2023/05/21 08:57:30;;;;;;;9.93;7.82;;;23.20;99.90;;;;;;7385222;19;20145;-79
2023/05/21 08:59:56;;;;;;;9.25;8.10;;;23.20;99.90;;;;;;7386194;19;20139;-76
2023/05/21 09:02:24;;;;;;;10.25;8.57;;;23.10;99.90;;;;;;7387217;19;20466;-76
2023/05/21 09:04:56;;;;;;;9.98;8.18;;;23.00;99.90;;;;;;7384563;19;20296;-75
2023/05/21 09:07:29;;;;;;;10.38;8.57;;;22.80;99.90;;;;;;7372096;19;20207;-76
2023/05/21 09:10:09;;;;;;;10.43;8.02;;;22.40;99.90;;;;;;7380243;19;20161;-75
2023/05/21 09:12:35;;;;;;;11.20;8.13;;;22.20;99.90;;;;;;7378896;19;20158;-76
2023/05/21 09:15:03;;;;;;;10.57;8.27;;;22.10;99.90;;;;;;7385073;19;20151;-76
2023/05/21 09:17:29;;;;;;;8.80;7.38;;;22.10;99.90;;;;;;7383955;19;20135;-76
2023/05/21 09:20:13;;;;;;;13.52;8.00;;;21.90;99.90;;;;;;7385329;19;20143;-75
2023/05/21 09:22:49;;;;;;;10.65;8.40;;;21.80;99.90;;;;;;7393722;19;20146;-76
2023/05/21 09:25:24;;;;;;;13.32;9.05;;;21.80;99.90;;;;;;7391934;19;20153;-76
2023/05/21 09:27:50;;;;;;;9.30;8.00;;;21.80;99.90;;;;;;7389603;19;20152;-76
2023/05/21 09:30:17;;;;;;;12.52;8.40;;;21.70;99.90;;;;;;7391737;19;20139;-76
2023/05/21 09:32:44;;;;;;;8.48;7.30;;;21.70;99.90;;;;;;7392137;19;20142;-76
2023/05/21 09:35:12;;;;;;;7.53;6.65;;;21.70;99.90;;;;;;7392193;19;20139;-75
2023/05/21 09:37:43;;;;;;;9.82;7.28;;;21.80;99.90;;;;;;7392400;19;20550;-76
2023/05/21 09:40:17;;;;;;;7.88;7.07;;;21.80;99.90;;;;;;7391029;19;20158;-74
2023/05/21 09:42:51;;;;;;;6.70;6.00;;;22.00;99.90;;;;;;7388404;19;20182;-75
2023/05/21 09:45:20;;;;;;;8.57;6.55;;;22.10;99.90;;;;;;7390581;19;20146;-76
2023/05/21 09:47:47;;;;;;;6.53;5.72;;;22.10;99.90;;;;;;7391526;19;20542;-75
2023/05/21 09:50:21;;;;;;;7.68;6.53;;;22.20;99.90;;;;;;7391674;19;20270;-75
2023/05/21 09:52:49;;;;;;;7.45;6.10;;;22.20;99.90;;;;;;7390066;19;20931;-74
2023/05/21 09:55:15;;;;;;;6.55;5.68;;;22.20;99.90;;;;;;7390377;19;20631;-75
2023/05/21 09:57:48;;;;;;;7.35;6.32;;;22.30;99.90;;;;;;7391923;19;20153;-75
2023/05/21 10:00:22;;;;;;;7.60;5.97;;;22.30;99.90;;;;;;7391703;19;20141;-76
2023/05/21 10:02:49;;;;;;;6.93;6.22;;;22.50;99.90;;;;;;7390152;19;20230;-75
2023/05/21 10:05:16;;;;;;;7.20;6.32;;;22.50;99.90;;;;;;7392089;19;20582;-76
2023/05/21 10:07:50;;;;;;;7.72;6.25;;;22.60;99.90;;;;;;7391571;19;20154;-75
2023/05/21 10:10:18;;;;;;;9.18;6.90;;;22.70;99.90;;;;;;7392976;19;20595;-75
2023/05/21 10:12:46;;;;;;;9.43;6.85;;;22.90;99.90;;;;;;7391380;19;20165;-75
2023/05/21 10:15:15;;;;;;;9.27;6.60;;;22.90;99.90;;;;;;7394884;19;20149;-76
2023/05/21 10:17:43;;;;;;;9.13;6.88;;;22.90;99.90;;;;;;7393521;19;20219;-76
2023/05/21 10:20:12;;;;;;;7.90;6.68;;;22.90;99.90;;;;;;7390149;19;20176;-75
2023/05/21 10:22:38;;;;;;;7.90;6.55;;;22.80;99.90;;;;;;7393593;19;20496;-74
2023/05/21 10:25:06;;;;;;;8.27;6.70;;;22.70;99.90;;;;;;7393501;19;20150;-75
2023/05/21 10:27:33;;;;;;;7.70;6.90;;;22.60;99.90;;;;;;7389554;19;20150;-75
2023/05/21 10:30:00;;;;;;;7.25;6.32;;;22.50;99.90;;;;;;7387759;19;20146;-75
2023/05/21 10:32:26;;;;;;;8.45;6.78;;;22.50;99.90;;;;;;7379948;19;20123;-76
2023/05/21 10:34:53;;;;;;;7.22;6.53;;;22.60;99.90;;;;;;7390842;19;20130;-77
2023/05/21 10:37:23;;;;;;;7.00;6.15;;;22.60;99.90;;;;;;7389637;19;20145;-77
2023/05/21 10:39:51;;;;;;;6.95;6.25;;;22.70;99.90;;;;;;7390285;19;20169;-75
2023/05/21 10:42:40;;;;;;;9.25;7.35;;;22.90;99.90;;;;;;7388616;19;20131;-76
2023/05/21 10:45:35;;;;;;;6.10;5.50;;;23.00;99.90;;;;;;7388619;19;20508;-78
2023/05/21 10:48:38;;;;;;;7.78;6.25;;;23.00;99.90;;;;;;7387373;19;20142;-77
2023/05/21 10:51:10;;;;;;;7.15;6.18;;;23.00;99.90;;;;;;7388743;19;20497;-77
2023/05/21 10:53:42;;;;;;;6.75;5.95;;;23.20;99.90;;;;;;7387509;19;20151;-77
2023/05/21 10:56:27;;;;;;;10.35;8.00;;;23.10;99.90;;;;;;7386233;19;20191;-77
2023/05/21 10:59:04;;;;;;;8.23;7.05;;;23.30;99.90;;;;;;7384531;19;20477;-78
2023/05/21 11:01:36;;;;;;;7.72;6.60;;;23.20;99.90;;;;;;7386526;19;20567;-74
2023/05/21 11:04:04;;;;;;;8.00;6.53;;;23.10;99.90;;;;;;7388020;19;20701;-77
2023/05/21 11:06:30;;;;;;;10.43;7.80;;;23.00;99.90;;;;;;7386970;19;20561;-74
2023/05/21 11:09:00;;;;;;;11.25;7.32;;;23.00;99.90;;;;;;7388081;19;20152;-79
2023/05/21 11:11:43;;;;;;;7.45;6.72;;;23.00;99.90;;;;;;7389674;19;20138;-77
2023/05/21 11:14:27;;;;;;;7.57;6.70;;;23.00;99.90;;;;;;7387038;19;20147;-77
2023/05/21 11:16:53;;;;;;;8.25;6.35;;;22.90;99.90;;;;;;7390038;19;20134;-74
2023/05/21 11:19:19;;;;;;;8.35;5.95;;;23.10;99.90;;;;;;7385627;19;20164;-78
2023/05/21 11:21:50;;;;;;;6.60;5.90;;;23.20;99.90;;;;;;7388703;19;20141;-77
2023/05/21 11:24:19;;;;;;;8.18;6.65;;;23.20;99.90;;;;;;7390175;19;20130;-81
2023/05/21 11:26:48;;;;;;;8.30;6.55;;;23.20;99.90;;;;;;7388039;19;20142;-77
2023/05/21 11:29:15;;;;;;;7.32;6.28;;;23.20;99.90;;;;;;7385732;19;20138;-75
2023/05/21 11:31:57;;;;;;;7.75;6.72;;;23.10;99.90;;;;;;7388836;19;20169;-79
2023/05/21 11:34:27;;;;;;;7.13;6.43;;;23.20;99.90;;;;;;7386382;19;20150;-77
2023/05/21 11:37:15;;;;;;;8.98;6.43;;;23.20;99.90;;;;;;7387641;19;20463;-76
2023/05/21 11:39:41;;;;;;;8.73;6.40;;;23.20;99.90;;;;;;7384859;19;20135;-78
2023/05/21 11:42:07;;;;;;;9.88;6.32;;;23.20;99.90;;;;;;7387058;19;20245;-77
2023/05/21 11:44:44;;;;;;;6.32;5.57;;;23.10;99.90;;;;;;7386397;19;20142;-76
2023/05/21 11:47:11;;;;;;;6.78;5.88;;;23.10;99.90;;;;;;7387347;19;20166;-76
2023/05/21 11:49:38;;;;;;;7.53;6.22;;;23.20;99.90;;;;;;7387472;19;20142;-75
2023/05/21 11:52:05;;;;;;;7.28;5.57;;;23.30;99.90;;;;;;7386971;19;20139;-76
2023/05/21 11:54:36;;;;;;;7.85;6.07;;;23.30;99.90;;;;;;7387964;19;20146;-76
2023/05/21 11:57:08;;;;;;;6.90;5.60;;;23.30;99.90;;;;;;7387826;19;20874;-75
2023/05/21 11:59:35;;;;;;;6.43;5.60;;;23.30;99.90;;;;;;7388337;19;20151;-76
2023/05/21 12:02:02;;;;;;;7.07;6.38;;;23.30;99.90;;;;;;7387018;19;20659;-74
2023/05/21 12:04:35;;;;;;;7.93;5.60;;;23.30;99.90;;;;;;7384953;19;20493;-76
2023/05/21 12:07:07;;;;;;;9.40;5.93;;;23.40;99.90;;;;;;7385331;19;20157;-77
2023/05/21 12:09:47;;;;;;;7.82;5.78;;;23.50;99.90;;;;;;7387142;19;20151;-77
2023/05/21 12:12:21;;;;;;;7.15;5.65;;;23.50;99.90;;;;;;7385729;19;20163;-76
2023/05/21 12:14:53;;;;;;;7.97;5.65;;;23.50;99.90;;;;;;7387740;19;20134;-78
2023/05/21 12:17:23;;;;;;;6.00;5.35;;;23.40;99.90;;;;;;7387196;19;20437;-76
2023/05/21 12:19:53;;;;;;;6.72;5.63;;;23.40;99.90;;;;;;7385276;19;20151;-76
2023/05/21 12:22:20;;;;;;;7.22;6.05;;;23.40;99.90;;;;;;7388680;19;20130;-77
2023/05/21 12:24:49;;;;;;;7.68;6.25;;;23.50;99.90;;;;;;7384985;19;20403;-79
2023/05/21 12:27:17;;;;;;;7.05;6.35;;;23.70;99.90;;;;;;7377702;19;20407;-77
2023/05/21 13:00:41;;;;;;;5.70;4.65;;;23.80;99.90;;;;;;7345194;19;20133;-78
2023/05/21 13:03:07;;;;;;;5.97;5.28;;;23.80;99.90;;;;;;7382327;19;20598;-78
2023/05/21 13:05:33;;;;;;;9.02;5.50;;;23.80;99.90;;;;;;7381919;19;20155;-77
2023/05/21 13:08:00;;;;;;;6.15;5.55;;;23.90;99.90;;;;;;7379028;19;20173;-76
2023/05/21 13:10:26;;;;;;;6.70;4.68;;;23.90;99.90;;;;;;7384030;19;20162;-76
2023/05/21 13:12:52;;;;;;;6.35;4.30;;;23.90;99.90;;;;;;7385142;19;20589;-74